createdAt,value
2017-10-25T00:00:31.515Z,87.00
2017-10-25T00:02:59.006Z,86.90
2017-10-25T00:05:26.503Z,86.90
2017-10-25T00:07:54.801Z,86.90
2017-10-25T00:10:22.294Z,87.00
2017-10-25T00:12:49.818Z,86.80
2017-10-25T00:15:17.306Z,86.80
2017-10-25T00:17:44.828Z,86.90
2017-10-25T00:20:12.313Z,87.00
2017-10-25T00:22:39.850Z,86.90
2017-10-25T00:25:07.359Z,86.80
2017-10-25T00:27:34.898Z,87.00
2017-10-25T00:30:02.402Z,87.10
2017-10-25T00:32:29.894Z,87.10
2017-10-25T00:34:57.421Z,87.10
2017-10-25T00:37:24.913Z,87.10
2017-10-25T00:39:52.435Z,87.10
2017-10-25T00:42:20.694Z,87.40
2017-10-25T00:44:48.228Z,87.40
2017-10-25T00:47:15.721Z,87.40
2017-10-25T00:49:43.277Z,87.60
2017-10-25T00:52:11.534Z,87.60
2017-10-25T00:54:39.830Z,87.90
2017-10-25T00:57:08.122Z,87.90
2017-10-25T00:59:35.660Z,87.90
2017-10-25T01:02:03.158Z,88.00
2017-10-25T01:04:31.430Z,87.80
2017-10-25T01:06:58.962Z,87.80
2017-10-25T01:09:26.467Z,87.70
2017-10-25T01:11:54.018Z,87.50
2017-10-25T01:14:21.501Z,86.90
2017-10-25T01:16:49.035Z,87.00
2017-10-25T01:19:16.526Z,86.80
2017-10-25T01:21:44.086Z,86.90
2017-10-25T01:24:11.577Z,86.90
2017-10-25T01:26:39.132Z,87.10
2017-10-25T01:29:06.637Z,87.30
2017-10-25T01:31:34.179Z,87.30
2017-10-25T01:34:01.671Z,87.60
2017-10-25T01:36:29.177Z,87.70
2017-10-25T01:38:56.703Z,87.70
2017-10-25T01:41:24.205Z,87.80
2017-10-25T01:43:51.749Z,87.80
2017-10-25T01:46:19.265Z,87.90
2017-10-25T01:48:47.562Z,88.10
2017-10-25T01:51:15.053Z,88.00
2017-10-25T01:53:42.602Z,88.00
2017-10-25T01:56:10.096Z,88.00
2017-10-25T01:58:37.589Z,88.00
2017-10-25T02:01:05.130Z,88.10
2017-10-25T02:03:32.629Z,88.20
2017-10-25T02:06:00.164Z,88.30
2017-10-25T02:08:27.654Z,88.10
2017-10-25T02:10:55.178Z,88.00
2017-10-25T02:13:22.689Z,88.00
2017-10-25T02:15:50.218Z,87.80
2017-10-25T02:18:17.708Z,87.80
2017-10-25T02:20:45.997Z,87.40
2017-10-25T02:23:13.484Z,87.50
2017-10-25T02:25:41.029Z,87.10
2017-10-25T02:28:08.526Z,86.90
2017-10-25T02:30:36.030Z,86.70
2017-10-25T02:33:03.557Z,86.50
2017-10-25T02:35:31.811Z,85.80
2017-10-25T02:37:59.341Z,85.80
2017-10-25T02:40:26.833Z,85.50
2017-10-25T02:42:54.364Z,85.30
2017-10-25T02:45:21.849Z,85.20
2017-10-25T02:47:49.373Z,85.20
2017-10-25T02:50:16.865Z,85.20
2017-10-25T02:52:45.171Z,85.00
2017-10-25T02:55:12.666Z,85.00
2017-10-25T02:57:40.161Z,84.80
2017-10-25T03:00:07.691Z,84.30
2017-10-25T03:02:35.190Z,84.40
2017-10-25T03:05:02.718Z,84.50
2017-10-25T03:07:30.221Z,84.50
2017-10-25T03:09:57.753Z,84.50
2017-10-25T03:12:26.011Z,84.70
2017-10-25T03:14:53.565Z,84.70
2017-10-25T03:17:21.053Z,84.50
2017-10-25T03:19:48.553Z,84.60
2017-10-25T03:22:16.860Z,84.20
2017-10-25T03:24:44.354Z,84.10
2017-10-25T03:27:11.876Z,84.10
2017-10-25T03:29:39.361Z,84.20
2017-10-25T03:32:07.662Z,84.30
2017-10-25T03:34:35.170Z,84.30
2017-10-25T03:37:02.745Z,84.20
2017-10-25T03:39:30.518Z,84.30
2017-10-25T03:41:58.023Z,84.60
2017-10-25T03:44:25.553Z,84.70
2017-10-25T03:46:53.042Z,84.60
2017-10-25T03:49:20.571Z,84.30
2017-10-25T03:51:48.064Z,84.50
2017-10-25T03:54:15.594Z,84.60
2017-10-25T03:56:43.855Z,84.50
2017-10-25T03:59:11.387Z,84.30
2017-10-25T04:01:38.886Z,84.50
2017-10-25T04:04:06.437Z,84.50
2017-10-25T04:06:33.927Z,85.30
2017-10-25T04:09:01.474Z,85.00
2017-10-25T04:11:28.970Z,85.30
2017-10-25T04:13:56.470Z,85.50
2017-10-25T04:16:24.005Z,85.20
2017-10-25T04:18:51.519Z,85.30
2017-10-25T04:21:19.052Z,85.60
2017-10-25T04:23:46.545Z,85.30
2017-10-25T04:26:14.070Z,85.20
2017-10-25T04:28:41.566Z,85.20
2017-10-25T04:31:09.102Z,85.30
2017-10-25T04:33:36.598Z,85.10
2017-10-25T04:36:04.151Z,85.30
2017-10-25T04:38:31.638Z,85.30
2017-10-25T04:40:59.128Z,85.80
2017-10-25T04:43:26.665Z,86.20
2017-10-25T04:45:54.170Z,86.30
2017-10-25T04:48:21.710Z,86.20
2017-10-25T04:50:49.214Z,85.90
2017-10-25T04:53:16.740Z,85.70
2017-10-25T04:55:44.731Z,85.50
2017-10-25T04:58:12.258Z,85.20
2017-10-25T05:00:39.746Z,85.10
2017-10-25T05:03:07.284Z,85.20
2017-10-25T05:05:34.789Z,84.90
2017-10-25T05:08:02.317Z,85.00
2017-10-25T05:10:29.828Z,84.90
2017-10-25T05:12:57.379Z,85.10
2017-10-25T05:15:24.886Z,85.20
2017-10-25T05:17:53.149Z,85.00
2017-10-25T05:20:20.683Z,84.90
2017-10-25T05:22:48.173Z,84.80
2017-10-25T05:25:15.698Z,85.00
2017-10-25T05:27:43.185Z,84.90
2017-10-25T05:30:10.714Z,84.70
2017-10-25T05:32:38.207Z,84.30
2017-10-25T05:35:06.538Z,84.20
2017-10-25T05:37:34.031Z,84.10
2017-10-25T05:40:01.589Z,84.30
2017-10-25T05:42:29.089Z,84.20
2017-10-25T05:44:56.651Z,84.30
2017-10-25T05:47:24.173Z,84.10
2017-10-25T05:49:51.704Z,83.90
2017-10-25T05:52:19.207Z,84.00
2017-10-25T05:54:46.773Z,84.20
2017-10-25T05:57:15.034Z,84.00
2017-10-25T05:59:42.537Z,84.00
2017-10-25T06:02:10.083Z,84.00
2017-10-25T06:04:38.210Z,83.90
2017-10-25T06:07:07.794Z,83.80
2017-10-25T06:09:35.296Z,83.90
2017-10-25T06:12:02.832Z,84.00
2017-10-25T06:14:30.342Z,83.90
2017-10-25T06:16:57.982Z,84.10
2017-10-25T06:19:25.481Z,84.00
2017-10-25T06:21:52.978Z,83.90
2017-10-25T06:24:20.506Z,83.90
2017-10-25T06:26:48.792Z,83.70
2017-10-25T06:29:16.349Z,83.70
2017-10-25T06:31:44.649Z,83.30
2017-10-25T06:34:12.174Z,82.70
2017-10-25T06:36:39.682Z,83.60
2017-10-25T06:39:07.250Z,82.60
2017-10-25T06:41:34.750Z,82.70
2017-10-25T06:44:03.009Z,82.50
2017-10-25T06:46:30.533Z,82.50
2017-10-25T06:48:58.021Z,82.50
2017-10-25T06:51:25.545Z,82.50
2017-10-25T06:53:53.797Z,82.30
2017-10-25T06:56:21.331Z,82.20
2017-10-25T06:58:48.832Z,82.20
2017-10-25T07:01:16.417Z,82.50
2017-10-25T07:03:43.912Z,82.30
2017-10-25T07:06:11.439Z,82.50
2017-10-25T07:08:38.938Z,82.20
2017-10-25T07:11:06.534Z,82.10
2017-10-25T07:13:34.805Z,82.10
2017-10-25T07:16:02.305Z,82.10
2017-10-25T07:18:29.833Z,82.10
2017-10-25T07:20:57.332Z,81.50
2017-10-25T07:23:24.862Z,80.20
2017-10-25T07:25:52.361Z,79.90
2017-10-25T07:28:19.899Z,79.70
2017-10-25T07:30:47.396Z,78.10
2017-10-25T07:33:15.021Z,74.80
2017-10-25T07:35:42.512Z,70.90
2017-10-25T07:38:10.046Z,67.50
2017-10-25T07:40:38.313Z,62.00
2017-10-25T07:43:05.838Z,61.90
2017-10-25T07:45:33.324Z,58.30
2017-10-25T07:48:01.194Z,56.50
2017-10-25T07:50:28.685Z,54.50
2017-10-25T07:52:56.190Z,53.10
2017-10-25T07:55:23.731Z,52.00
2017-10-25T07:57:51.217Z,50.20
2017-10-25T08:00:18.754Z,48.50
2017-10-25T08:02:46.242Z,46.70
2017-10-25T08:05:13.762Z,47.10
2017-10-25T08:07:42.018Z,47.40
2017-10-25T08:10:09.545Z,47.40
2017-10-25T08:12:37.040Z,47.80
2017-10-25T08:15:04.569Z,46.40
2017-10-25T08:17:32.830Z,44.90
2017-10-25T08:20:00.358Z,44.90
2017-10-25T08:22:27.849Z,43.40
2017-10-25T08:24:55.339Z,42.10
2017-10-25T08:27:22.881Z,43.10
2017-10-25T08:29:50.377Z,43.20
2017-10-25T08:32:17.899Z,42.90
2017-10-25T08:34:45.393Z,43.60
2017-10-25T08:37:12.931Z,44.40
2017-10-25T08:39:40.426Z,45.00
2017-10-25T08:42:07.918Z,45.20
2017-10-25T08:44:35.468Z,45.00
2017-10-25T08:47:02.993Z,44.40
2017-10-25T08:49:30.520Z,44.00
2017-10-25T08:51:58.010Z,45.70
2017-10-25T08:54:25.555Z,45.10
2017-10-25T08:56:53.063Z,44.80
2017-10-25T08:59:20.613Z,45.60
2017-10-25T09:01:48.102Z,47.00
2017-10-25T09:04:15.707Z,48.50
2017-10-25T09:06:43.976Z,51.90
2017-10-25T09:09:11.473Z,51.80
2017-10-25T09:11:39.770Z,52.40
2017-10-25T09:14:07.268Z,52.40
2017-10-25T09:16:34.817Z,50.10
2017-10-25T09:19:02.322Z,47.70
2017-10-25T09:21:29.874Z,46.50
2017-10-25T09:23:57.378Z,44.80
2017-10-25T09:26:24.910Z,45.00
2017-10-25T09:28:52.401Z,46.10
2017-10-25T09:31:20.051Z,47.90
2017-10-25T09:33:47.556Z,48.80
2017-10-25T09:36:15.045Z,50.20
2017-10-25T09:38:42.575Z,50.50
2017-10-25T09:41:10.107Z,50.90
2017-10-25T09:43:37.643Z,51.10
2017-10-25T09:46:05.142Z,51.40
2017-10-25T09:48:32.738Z,52.00
2017-10-25T09:51:00.998Z,51.20
2017-10-25T09:53:28.541Z,51.20
2017-10-25T09:55:56.047Z,51.00
2017-10-25T09:58:23.537Z,50.10
2017-10-25T10:00:51.833Z,51.20
2017-10-25T10:03:20.090Z,51.30
2017-10-25T10:05:47.630Z,51.20
2017-10-25T10:08:15.137Z,49.70
2017-10-25T10:10:42.664Z,48.70
2017-10-25T10:13:10.154Z,47.20
2017-10-25T10:15:37.682Z,47.10
2017-10-25T10:18:05.952Z,46.90
2017-10-25T10:20:33.491Z,46.90
2017-10-25T10:23:00.993Z,48.20
2017-10-25T10:25:28.549Z,48.70
2017-10-25T10:27:56.047Z,48.50
2017-10-25T10:30:24.303Z,50.20
2017-10-25T10:32:51.860Z,50.20
2017-10-25T10:35:19.372Z,50.20
2017-10-25T10:37:46.898Z,49.30
2017-10-25T10:40:14.389Z,47.50
2017-10-25T10:42:41.935Z,48.50
2017-10-25T10:45:09.431Z,47.70
2017-10-25T10:47:36.979Z,49.00
2017-10-25T10:50:04.473Z,48.80
2017-10-25T10:52:32.005Z,48.10
2017-10-25T10:54:59.505Z,48.20
2017-10-25T10:57:27.036Z,49.10
2017-10-25T10:59:54.529Z,51.20
2017-10-25T11:02:22.271Z,51.90
2017-10-25T11:04:49.784Z,51.80
2017-10-25T11:07:17.305Z,52.40
2017-10-25T11:09:44.860Z,53.20
2017-10-25T11:12:12.486Z,53.40
2017-10-25T11:14:40.009Z,52.90
2017-10-25T11:17:07.510Z,52.70
2017-10-25T11:19:35.820Z,52.00
2017-10-25T11:22:04.327Z,52.30
2017-10-25T11:24:31.880Z,52.30
2017-10-25T11:26:59.369Z,53.00
2017-10-25T11:29:26.912Z,53.00
2017-10-25T11:31:55.173Z,53.40
2017-10-25T11:34:22.664Z,53.30
2017-10-25T11:36:50.965Z,52.90
2017-10-25T11:39:19.237Z,52.90
2017-10-25T11:41:46.769Z,52.70
2017-10-25T11:44:14.282Z,54.20
2017-10-25T11:46:41.813Z,54.40
2017-10-25T11:49:09.317Z,54.90
2017-10-25T11:51:36.862Z,54.90
2017-10-25T11:54:04.365Z,55.10
2017-10-25T11:56:32.635Z,55.90
2017-10-25T11:59:00.166Z,55.90
2017-10-25T12:01:27.666Z,55.40
2017-10-25T12:03:55.190Z,55.60
2017-10-25T12:06:22.681Z,55.50
2017-10-25T12:08:50.202Z,55.40
2017-10-25T12:11:17.716Z,55.90
2017-10-25T12:13:45.283Z,55.90
2017-10-25T12:16:12.859Z,55.00
2017-10-25T12:18:40.349Z,55.00
2017-10-25T12:21:07.874Z,54.40
2017-10-25T12:23:35.378Z,53.60
2017-10-25T12:26:02.906Z,53.50
2017-10-25T12:28:30.406Z,53.90
2017-10-25T12:30:58.696Z,55.10
2017-10-25T12:33:26.961Z,54.50
2017-10-25T12:35:54.493Z,54.60
2017-10-25T12:38:21.989Z,55.20
2017-10-25T12:40:49.530Z,56.10
2017-10-25T12:43:17.029Z,56.20
2017-10-25T12:45:44.539Z,56.40
2017-10-25T12:48:12.097Z,56.50
2017-10-25T12:50:40.361Z,56.40
2017-10-25T12:53:07.893Z,56.40
2017-10-25T12:55:35.397Z,56.50
2017-10-25T12:58:02.942Z,56.70
2017-10-25T13:00:30.441Z,57.00
2017-10-25T13:02:57.981Z,57.30
2017-10-25T13:05:25.478Z,57.90
2017-10-25T13:07:52.969Z,58.20
2017-10-25T13:10:36.277Z,58.70
2017-10-25T13:13:21.105Z,59.00
2017-10-25T13:16:12.631Z,59.50
2017-10-25T13:18:48.309Z,60.40
2017-10-25T13:21:16.566Z,61.20
2017-10-25T13:23:44.094Z,60.70
2017-10-25T13:26:11.598Z,61.20
2017-10-25T13:28:39.138Z,61.30
2017-10-25T13:31:06.681Z,61.00
2017-10-25T13:33:34.971Z,61.70
2017-10-25T13:36:02.509Z,61.70
2017-10-25T13:38:30.011Z,61.80
2017-10-25T13:40:58.338Z,61.50
2017-10-25T13:43:25.842Z,61.50
2017-10-25T13:45:53.345Z,61.60
2017-10-25T13:48:21.641Z,61.80
2017-10-25T13:50:49.917Z,62.00
2017-10-25T13:53:17.442Z,62.00
2017-10-25T13:55:44.938Z,61.40
2017-10-25T13:58:12.489Z,61.30
2017-10-25T14:00:39.992Z,61.60
2017-10-25T14:03:07.485Z,61.30
2017-10-25T14:05:35.092Z,61.30
2017-10-25T14:08:02.588Z,62.00
2017-10-25T14:10:30.120Z,62.40
2017-10-25T14:12:57.628Z,62.30
2017-10-25T14:15:25.597Z,62.70
2017-10-25T14:17:54.646Z,63.20
2017-10-25T14:20:22.232Z,63.10
2017-10-25T14:22:49.751Z,63.50
2017-10-25T14:25:17.258Z,63.70
2017-10-25T14:27:56.489Z,64.00
2017-10-25T14:30:23.977Z,63.90
2017-10-25T14:32:51.507Z,63.80
2017-10-25T14:35:19.035Z,63.80
2017-10-25T14:37:46.564Z,63.90
2017-10-25T14:40:14.054Z,65.00
2017-10-25T14:42:41.591Z,64.90
2017-10-25T14:45:09.113Z,65.40
2017-10-25T14:47:36.656Z,65.50
2017-10-25T14:50:04.149Z,65.40
2017-10-25T14:52:31.647Z,65.50
2017-10-25T14:54:59.957Z,65.50
2017-10-25T14:57:27.455Z,65.30
2017-10-25T14:59:54.981Z,65.50
2017-10-25T15:02:22.488Z,65.60
2017-10-25T15:04:50.040Z,65.00
2017-10-25T15:07:17.585Z,64.90
2017-10-25T15:09:45.141Z,64.80
2017-10-25T15:12:12.639Z,64.60
2017-10-25T15:14:40.193Z,64.70
2017-10-25T15:17:07.682Z,64.90
2017-10-25T15:19:35.936Z,65.50
2017-10-25T15:22:03.458Z,65.50
2017-10-25T15:24:30.954Z,65.60
2017-10-25T15:26:58.507Z,65.90
2017-10-25T15:29:26.010Z,66.30
2017-10-25T15:31:53.562Z,66.50
2017-10-25T15:34:21.090Z,66.80
2017-10-25T15:36:48.626Z,66.70
2017-10-25T15:39:16.893Z,66.60
2017-10-25T15:41:44.418Z,66.60
2017-10-25T15:44:11.915Z,67.50
2017-10-25T15:46:39.442Z,66.80
2017-10-25T15:49:06.941Z,66.90
2017-10-25T15:51:34.565Z,67.20
2017-10-25T15:54:02.062Z,67.20
2017-10-25T15:56:29.649Z,67.40
2017-10-25T15:58:57.181Z,67.70
2017-10-25T16:01:24.688Z,68.00
2017-10-25T16:03:52.217Z,68.00
2017-10-25T16:06:19.723Z,68.40
2017-10-25T16:08:47.254Z,68.60
2017-10-25T16:11:14.754Z,68.50
2017-10-25T16:13:42.299Z,68.80
2017-10-25T16:16:09.798Z,69.00
2017-10-25T16:18:37.352Z,69.40
2017-10-25T16:21:04.845Z,69.60
2017-10-25T16:23:32.364Z,69.60
2017-10-25T16:26:00.688Z,70.00
2017-10-25T16:28:28.190Z,69.80
2017-10-25T16:30:56.334Z,69.90
2017-10-25T16:33:23.839Z,70.80
2017-10-25T16:35:51.485Z,69.50
2017-10-25T16:38:18.992Z,69.50
2017-10-25T16:40:46.485Z,69.40
2017-10-25T16:43:14.789Z,69.30
2017-10-25T16:45:43.070Z,69.60
2017-10-25T16:48:10.621Z,69.60
2017-10-25T16:50:38.138Z,69.90
2017-10-25T16:53:05.672Z,70.50
2017-10-25T16:55:33.174Z,70.70
2017-10-25T16:58:00.681Z,71.10
2017-10-25T17:00:28.222Z,71.50
2017-10-25T17:02:55.746Z,71.80
2017-10-25T17:05:23.296Z,72.10
2017-10-25T17:07:50.800Z,72.50
2017-10-25T17:10:19.108Z,72.90
2017-10-25T17:12:47.407Z,73.10
2017-10-25T17:15:14.993Z,73.10
2017-10-25T17:17:42.511Z,73.70
2017-10-25T17:20:12.248Z,74.30
2017-10-25T17:22:39.744Z,74.80
2017-10-25T17:25:07.334Z,75.20
2017-10-25T17:27:34.886Z,75.70
2017-10-25T17:30:04.782Z,76.30
2017-10-25T17:32:32.328Z,76.90
2017-10-25T17:34:59.845Z,77.50
2017-10-25T17:37:28.169Z,78.80
2017-10-25T17:39:55.706Z,78.00
2017-10-25T17:42:24.726Z,78.60
2017-10-25T17:44:52.244Z,78.60
2017-10-25T17:47:19.766Z,78.70
2017-10-25T17:49:47.311Z,78.80
2017-10-25T17:52:14.816Z,79.40
2017-10-25T17:54:42.367Z,79.70
2017-10-25T17:57:10.658Z,80.20
2017-10-25T17:59:38.193Z,80.20
2017-10-25T18:02:05.693Z,80.50
2017-10-25T18:04:33.263Z,80.30
2017-10-25T18:07:00.765Z,80.60
2017-10-25T18:09:28.285Z,80.90
2017-10-25T18:11:55.838Z,81.00
2017-10-25T18:14:23.341Z,81.20
2017-10-25T18:16:50.890Z,81.30
2017-10-25T18:19:18.394Z,81.60
2017-10-25T18:21:45.900Z,81.90
2017-10-25T18:24:13.437Z,81.90
2017-10-25T18:26:40.941Z,81.90
2017-10-25T18:29:08.594Z,82.10
2017-10-25T18:31:36.900Z,82.20
2017-10-25T18:34:05.217Z,82.30
2017-10-25T18:36:32.730Z,82.40
2017-10-25T18:39:00.378Z,82.20
2017-10-25T18:41:27.926Z,82.30
2017-10-25T18:43:55.439Z,82.50
2017-10-25T18:46:22.977Z,82.60
2017-10-25T18:48:50.614Z,82.70
2017-10-25T18:51:18.913Z,83.00
2017-10-25T18:53:46.432Z,83.00
2017-10-25T18:56:13.991Z,82.80
2017-10-25T18:58:41.501Z,82.90
2017-10-25T19:01:10.044Z,82.90
2017-10-25T19:03:37.608Z,83.20
2017-10-25T19:06:05.145Z,83.20
2017-10-25T19:08:32.700Z,84.00
2017-10-25T19:11:00.235Z,83.40
2017-10-25T19:13:27.767Z,83.70
2017-10-25T19:15:55.270Z,84.10
2017-10-25T19:18:22.841Z,83.50
2017-10-25T19:20:50.434Z,83.60
2017-10-25T19:23:17.971Z,83.80
2017-10-25T19:25:46.274Z,83.80
2017-10-25T19:28:13.788Z,83.80
2017-10-25T19:30:41.345Z,83.90
2017-10-25T19:33:08.865Z,84.20
2017-10-25T19:35:36.362Z,84.30
2017-10-25T19:38:03.897Z,84.40
2017-10-25T19:40:31.402Z,84.40
2017-10-25T19:42:58.945Z,84.80
2017-10-25T19:45:27.230Z,85.10
2017-10-25T19:47:54.776Z,85.00
2017-10-25T19:50:22.293Z,84.90
2017-10-25T19:52:50.653Z,85.30
2017-10-25T19:55:18.181Z,85.30
2017-10-25T19:57:45.688Z,85.50
2017-10-25T20:00:13.233Z,85.70
2017-10-25T20:02:40.745Z,86.20
2017-10-25T20:05:08.311Z,86.20
2017-10-25T20:07:35.824Z,86.20
2017-10-25T20:10:04.164Z,86.30
2017-10-25T20:12:31.658Z,86.20
2017-10-25T20:14:59.175Z,86.40
2017-10-25T20:17:26.726Z,86.50
2017-10-25T20:19:54.240Z,86.80
2017-10-25T20:22:21.777Z,86.40
2017-10-25T20:24:49.270Z,86.40
2017-10-25T20:27:16.838Z,86.40
2017-10-25T20:29:44.342Z,86.40
2017-10-25T20:32:11.875Z,86.40
2017-10-25T20:34:40.373Z,86.50
2017-10-25T20:37:07.885Z,87.30
2017-10-25T20:39:35.430Z,86.90
2017-10-25T20:42:02.943Z,87.10
2017-10-25T20:44:30.494Z,87.50
2017-10-25T20:46:58.003Z,87.70
2017-10-25T20:49:25.556Z,87.90
2017-10-25T20:51:53.073Z,88.00
2017-10-25T20:54:20.795Z,88.10
2017-10-25T20:56:48.324Z,88.20
2017-10-25T20:59:15.899Z,88.20
2017-10-25T21:01:43.443Z,88.10
2017-10-25T21:04:11.715Z,88.40
2017-10-25T21:06:39.250Z,88.40
2017-10-25T21:09:06.782Z,88.60
2017-10-25T21:11:34.323Z,88.60
2017-10-25T21:14:01.846Z,89.00
2017-10-25T21:16:29.385Z,89.20
2017-10-25T21:18:57.655Z,89.70
2017-10-25T21:21:25.215Z,89.70
2017-10-25T21:23:52.739Z,89.80
2017-10-25T21:26:20.250Z,89.80
2017-10-25T21:28:47.788Z,89.70
2017-10-25T21:31:15.304Z,89.50
2017-10-25T21:33:42.848Z,89.50
2017-10-25T21:36:10.346Z,89.50
2017-10-25T21:38:37.885Z,89.40
2017-10-25T21:41:05.389Z,89.40
2017-10-25T21:43:32.935Z,89.20
2017-10-25T21:46:00.436Z,89.20
2017-10-25T21:48:27.982Z,89.20
2017-10-25T21:50:55.486Z,89.50
2017-10-25T21:53:23.077Z,89.50
2017-10-25T21:55:50.614Z,89.80
2017-10-25T21:58:18.117Z,90.00
2017-10-25T22:00:45.657Z,90.30
2017-10-25T22:03:13.867Z,90.20
2017-10-25T22:05:43.042Z,90.60
2017-10-25T22:08:10.602Z,90.70
2017-10-25T22:10:38.740Z,90.80
2017-10-25T22:13:06.497Z,90.90
2017-10-25T22:15:34.237Z,91.10
2017-10-25T22:18:05.120Z,90.60
2017-10-25T22:20:32.618Z,90.40
2017-10-25T22:23:00.793Z,90.20
2017-10-25T22:25:29.216Z,90.10
2017-10-25T22:28:06.965Z,90.00
2017-10-25T22:30:34.482Z,90.00
2017-10-25T22:33:02.038Z,90.00
2017-10-25T22:35:29.543Z,90.00
2017-10-25T22:37:57.096Z,89.90
2017-10-25T22:40:24.642Z,89.70
2017-10-25T22:42:52.148Z,89.80
2017-10-25T22:45:20.026Z,89.70
2017-10-25T22:47:47.532Z,89.70
2017-10-25T22:50:15.093Z,89.30
2017-10-25T22:52:42.615Z,89.60
2017-10-25T22:55:10.153Z,89.50
2017-10-25T22:57:37.679Z,89.40
2017-10-25T23:00:22.886Z,89.40
2017-10-25T23:02:50.461Z,89.40
2017-10-25T23:05:17.969Z,89.20
2017-10-25T23:07:45.510Z,89.20
2017-10-25T23:10:21.868Z,89.10
2017-10-25T23:12:50.619Z,89.10
2017-10-25T23:15:18.360Z,89.30
2017-10-25T23:17:48.318Z,89.30
2017-10-25T23:20:15.898Z,89.50
2017-10-25T23:22:43.437Z,89.60
2017-10-25T23:25:11.306Z,89.90
2017-10-25T23:27:39.042Z,90.10
2017-10-25T23:30:23.929Z,90.10
2017-10-25T23:32:52.292Z,90.10
2017-10-25T23:35:20.454Z,90.20
2017-10-25T23:37:48.364Z,90.20
2017-10-25T23:40:15.931Z,90.30
2017-10-25T23:42:44.222Z,90.40
2017-10-25T23:45:11.937Z,90.40
2017-10-25T23:47:39.440Z,90.40
2017-10-25T23:50:08.252Z,90.40
2017-10-25T23:52:35.805Z,90.40
2017-10-25T23:55:04.025Z,90.40
2017-10-25T23:57:33.090Z,90.50
